sensor_id;sensor_type;location;lat;lon;timestamp;P1;durP1;ratioP1;P2;durP2;ratioP2
34767;SDS011;21755;43.608;1.236;2024-03-07T00:02:20;22.85;;;8.68;;
34767;SDS011;21755;43.608;1.236;2024-03-07T00:04:46;17.38;;;8.55;;
34767;SDS011;21755;43.608;1.236;2024-03-07T00:07:12;17.10;;;9.40;;
34767;SDS011;21755;43.608;1.236;2024-03-07T00:09:38;18.38;;;8.35;;
34767;SDS011;21755;43.608;1.236;2024-03-07T00:12:04;20.13;;;8.40;;
34767;SDS011;21755;43.608;1.236;2024-03-07T00:14:32;16.58;;;8.82;;
34767;SDS011;21755;43.608;1.236;2024-03-07T00:17:00;21.48;;;9.95;;
34767;SDS011;21755;43.608;1.236;2024-03-07T00:19:28;20.45;;;9.25;;
34767;SDS011;21755;43.608;1.236;2024-03-07T00:21:57;18.83;;;9.57;;
34767;SDS011;21755;43.608;1.236;2024-03-07T00:24:23;14.65;;;8.95;;
34767;SDS011;21755;43.608;1.236;2024-03-07T00:26:49;28.23;;;9.85;;
34767;SDS011;21755;43.608;1.236;2024-03-07T00:29:16;18.70;;;9.05;;
34767;SDS011;21755;43.608;1.236;2024-03-07T00:31:43;25.05;;;9.35;;
34767;SDS011;21755;43.608;1.236;2024-03-07T00:34:12;16.83;;;8.90;;
34767;SDS011;21755;43.608;1.236;2024-03-07T00:36:44;20.02;;;9.10;;
34767;SDS011;21755;43.608;1.236;2024-03-07T00:39:11;24.85;;;8.93;;
34767;SDS011;21755;43.608;1.236;2024-03-07T00:41:40;20.77;;;9.52;;
34767;SDS011;21755;43.608;1.236;2024-03-07T00:44:07;23.38;;;10.95;;
34767;SDS011;21755;43.608;1.236;2024-03-07T00:46:37;22.33;;;9.18;;
34767;SDS011;21755;43.608;1.236;2024-03-07T00:49:03;20.75;;;9.02;;
34767;SDS011;21755;43.608;1.236;2024-03-07T00:51:30;19.20;;;9.27;;
34767;SDS011;21755;43.608;1.236;2024-03-07T00:53:56;20.58;;;9.65;;
34767;SDS011;21755;43.608;1.236;2024-03-07T00:56:23;19.42;;;9.55;;
34767;SDS011;21755;43.608;1.236;2024-03-07T00:58:49;17.83;;;8.40;;
34767;SDS011;21755;43.608;1.236;2024-03-07T01:01:18;22.33;;;10.43;;
34767;SDS011;21755;43.608;1.236;2024-03-07T01:03:44;17.73;;;8.70;;
34767;SDS011;21755;43.608;1.236;2024-03-07T01:06:11;17.02;;;8.27;;
34767;SDS011;21755;43.608;1.236;2024-03-07T01:08:37;24.33;;;9.90;;
34767;SDS011;21755;43.608;1.236;2024-03-07T01:11:04;16.10;;;7.60;;
34767;SDS011;21755;43.608;1.236;2024-03-07T01:16:06;16.20;;;7.47;;
34767;SDS011;21755;43.608;1.236;2024-03-07T01:18:33;11.30;;;6.78;;
34767;SDS011;21755;43.608;1.236;2024-03-07T01:23:29;12.48;;;6.78;;
34767;SDS011;21755;43.608;1.236;2024-03-07T01:25:55;12.50;;;6.95;;
34767;SDS011;21755;43.608;1.236;2024-03-07T01:28:26;10.05;;;6.18;;
34767;SDS011;21755;43.608;1.236;2024-03-07T01:30:56;16.15;;;6.47;;
34767;SDS011;21755;43.608;1.236;2024-03-07T01:33:23;10.13;;;5.55;;
34767;SDS011;21755;43.608;1.236;2024-03-07T01:35:49;8.90;;;5.95;;
34767;SDS011;21755;43.608;1.236;2024-03-07T01:38:15;10.15;;;6.15;;
34767;SDS011;21755;43.608;1.236;2024-03-07T01:40:42;8.88;;;5.45;;
34767;SDS011;21755;43.608;1.236;2024-03-07T01:43:09;11.45;;;5.60;;
34767;SDS011;21755;43.608;1.236;2024-03-07T01:45:35;8.48;;;5.60;;
34767;SDS011;21755;43.608;1.236;2024-03-07T01:48:05;13.88;;;6.32;;
34767;SDS011;21755;43.608;1.236;2024-03-07T01:50:33;9.48;;;5.75;;
34767;SDS011;21755;43.608;1.236;2024-03-07T01:53:04;14.32;;;6.78;;
34767;SDS011;21755;43.608;1.236;2024-03-07T01:55:35;12.35;;;6.43;;
34767;SDS011;21755;43.608;1.236;2024-03-07T01:58:02;12.30;;;6.88;;
34767;SDS011;21755;43.608;1.236;2024-03-07T02:00:29;14.35;;;6.97;;
34767;SDS011;21755;43.608;1.236;2024-03-07T02:02:56;12.35;;;6.47;;
34767;SDS011;21755;43.608;1.236;2024-03-07T02:05:22;12.95;;;5.95;;
34767;SDS011;21755;43.608;1.236;2024-03-07T02:07:49;13.00;;;6.45;;
34767;SDS011;21755;43.608;1.236;2024-03-07T02:10:16;12.93;;;6.70;;
34767;SDS011;21755;43.608;1.236;2024-03-07T02:12:43;11.68;;;6.93;;
34767;SDS011;21755;43.608;1.236;2024-03-07T02:15:10;14.20;;;6.00;;
34767;SDS011;21755;43.608;1.236;2024-03-07T02:17:36;16.77;;;5.95;;
34767;SDS011;21755;43.608;1.236;2024-03-07T02:20:03;12.35;;;6.05;;
34767;SDS011;21755;43.608;1.236;2024-03-07T02:22:32;11.10;;;6.47;;
34767;SDS011;21755;43.608;1.236;2024-03-07T02:24:58;11.35;;;5.82;;
34767;SDS011;21755;43.608;1.236;2024-03-07T02:27:24;10.45;;;5.93;;
34767;SDS011;21755;43.608;1.236;2024-03-07T02:29:50;15.02;;;7.40;;
34767;SDS011;21755;43.608;1.236;2024-03-07T02:32:16;16.08;;;6.80;;
34767;SDS011;21755;43.608;1.236;2024-03-07T02:34:42;12.75;;;5.88;;
34767;SDS011;21755;43.608;1.236;2024-03-07T02:37:09;10.88;;;6.10;;
34767;SDS011;21755;43.608;1.236;2024-03-07T02:39:36;11.23;;;6.35;;
34767;SDS011;21755;43.608;1.236;2024-03-07T02:42:02;12.45;;;6.68;;
34767;SDS011;21755;43.608;1.236;2024-03-07T02:44:28;13.07;;;6.30;;
34767;SDS011;21755;43.608;1.236;2024-03-07T02:46:54;9.55;;;5.13;;
34767;SDS011;21755;43.608;1.236;2024-03-07T02:49:20;7.72;;;5.38;;
34767;SDS011;21755;43.608;1.236;2024-03-07T02:51:46;10.15;;;5.35;;
34767;SDS011;21755;43.608;1.236;2024-03-07T02:54:12;10.20;;;5.22;;
34767;SDS011;21755;43.608;1.236;2024-03-07T02:56:38;7.22;;;5.15;;
34767;SDS011;21755;43.608;1.236;2024-03-07T02:59:04;10.00;;;4.60;;
34767;SDS011;21755;43.608;1.236;2024-03-07T03:01:31;11.85;;;5.47;;
34767;SDS011;21755;43.608;1.236;2024-03-07T03:03:58;10.95;;;5.13;;
34767;SDS011;21755;43.608;1.236;2024-03-07T03:06:24;7.47;;;4.82;;
34767;SDS011;21755;43.608;1.236;2024-03-07T03:08:50;10.88;;;5.20;;
34767;SDS011;21755;43.608;1.236;2024-03-07T03:11:16;14.10;;;4.75;;
34767;SDS011;21755;43.608;1.236;2024-03-07T03:13:42;9.00;;;4.55;;
34767;SDS011;21755;43.608;1.236;2024-03-07T03:16:08;7.70;;;3.90;;
34767;SDS011;21755;43.608;1.236;2024-03-07T03:18:37;9.63;;;4.40;;
34767;SDS011;21755;43.608;1.236;2024-03-07T03:21:04;6.00;;;4.28;;
34767;SDS011;21755;43.608;1.236;2024-03-07T03:23:30;13.13;;;4.82;;
34767;SDS011;21755;43.608;1.236;2024-03-07T03:25:56;4.93;;;3.20;;
34767;SDS011;21755;43.608;1.236;2024-03-07T03:28:22;7.40;;;3.90;;
34767;SDS011;21755;43.608;1.236;2024-03-07T03:30:49;8.07;;;3.78;;
34767;SDS011;21755;43.608;1.236;2024-03-07T03:33:16;7.32;;;2.90;;
34767;SDS011;21755;43.608;1.236;2024-03-07T03:35:43;4.72;;;2.75;;
34767;SDS011;21755;43.608;1.236;2024-03-07T03:38:09;5.63;;;2.40;;
34767;SDS011;21755;43.608;1.236;2024-03-07T03:40:35;4.18;;;2.53;;
34767;SDS011;21755;43.608;1.236;2024-03-07T03:43:02;8.48;;;3.33;;
34767;SDS011;21755;43.608;1.236;2024-03-07T03:45:28;6.78;;;2.58;;
34767;SDS011;21755;43.608;1.236;2024-03-07T03:47:55;4.75;;;3.05;;
34767;SDS011;21755;43.608;1.236;2024-03-07T03:50:21;5.38;;;2.80;;
34767;SDS011;21755;43.608;1.236;2024-03-07T03:52:51;4.38;;;2.15;;
34767;SDS011;21755;43.608;1.236;2024-03-07T03:55:17;4.68;;;1.83;;
34767;SDS011;21755;43.608;1.236;2024-03-07T03:57:43;3.13;;;1.85;;
34767;SDS011;21755;43.608;1.236;2024-03-07T04:00:12;4.03;;;1.77;;
34767;SDS011;21755;43.608;1.236;2024-03-07T04:02:38;4.15;;;2.03;;
34767;SDS011;21755;43.608;1.236;2024-03-07T04:05:11;3.85;;;1.92;;
34767;SDS011;21755;43.608;1.236;2024-03-07T04:07:38;3.65;;;1.95;;
34767;SDS011;21755;43.608;1.236;2024-03-07T04:10:07;3.10;;;1.50;;
34767;SDS011;21755;43.608;1.236;2024-03-07T04:12:38;4.15;;;1.77;;
34767;SDS011;21755;43.608;1.236;2024-03-07T04:15:06;3.85;;;1.50;;
34767;SDS011;21755;43.608;1.236;2024-03-07T04:17:33;3.08;;;1.40;;
34767;SDS011;21755;43.608;1.236;2024-03-07T04:20:00;2.40;;;1.15;;
34767;SDS011;21755;43.608;1.236;2024-03-07T04:22:30;2.13;;;1.30;;
34767;SDS011;21755;43.608;1.236;2024-03-07T04:24:59;3.75;;;1.40;;
34767;SDS011;21755;43.608;1.236;2024-03-07T04:27:29;3.63;;;1.50;;
34767;SDS011;21755;43.608;1.236;2024-03-07T04:29:55;1.88;;;1.40;;
34767;SDS011;21755;43.608;1.236;2024-03-07T04:32:21;4.35;;;1.42;;
34767;SDS011;21755;43.608;1.236;2024-03-07T04:34:48;4.15;;;1.40;;
34767;SDS011;21755;43.608;1.236;2024-03-07T04:37:14;1.98;;;1.13;;
34767;SDS011;21755;43.608;1.236;2024-03-07T04:39:40;4.10;;;1.40;;
34767;SDS011;21755;43.608;1.236;2024-03-07T04:42:06;5.32;;;1.45;;
34767;SDS011;21755;43.608;1.236;2024-03-07T04:44:33;3.30;;;1.35;;
34767;SDS011;21755;43.608;1.236;2024-03-07T04:47:01;2.78;;;1.60;;
34767;SDS011;21755;43.608;1.236;2024-03-07T04:49:31;5.45;;;1.13;;
34767;SDS011;21755;43.608;1.236;2024-03-07T04:51:58;2.15;;;1.38;;
34767;SDS011;21755;43.608;1.236;2024-03-07T04:54:26;6.25;;;1.52;;
34767;SDS011;21755;43.608;1.236;2024-03-07T04:56:54;4.25;;;1.45;;
34767;SDS011;21755;43.608;1.236;2024-03-07T04:59:20;3.03;;;1.50;;
34767;SDS011;21755;43.608;1.236;2024-03-07T05:01:47;5.82;;;1.45;;
34767;SDS011;21755;43.608;1.236;2024-03-07T05:04:17;2.75;;;1.50;;
34767;SDS011;21755;43.608;1.236;2024-03-07T05:06:44;2.40;;;1.30;;
34767;SDS011;21755;43.608;1.236;2024-03-07T05:09:12;4.43;;;1.15;;
34767;SDS011;21755;43.608;1.236;2024-03-07T05:11:48;4.85;;;2.03;;
34767;SDS011;21755;43.608;1.236;2024-03-07T05:14:16;4.53;;;1.48;;
34767;SDS011;21755;43.608;1.236;2024-03-07T05:16:42;2.15;;;1.35;;
34767;SDS011;21755;43.608;1.236;2024-03-07T05:19:09;4.75;;;2.42;;
34767;SDS011;21755;43.608;1.236;2024-03-07T05:21:35;2.97;;;1.38;;
34767;SDS011;21755;43.608;1.236;2024-03-07T05:24:06;6.50;;;1.42;;
34767;SDS011;21755;43.608;1.236;2024-03-07T05:26:36;1.90;;;1.20;;
34767;SDS011;21755;43.608;1.236;2024-03-07T05:29:07;2.95;;;1.48;;
34767;SDS011;21755;43.608;1.236;2024-03-07T05:31:34;6.55;;;1.20;;
34767;SDS011;21755;43.608;1.236;2024-03-07T05:34:02;2.33;;;1.42;;
34767;SDS011;21755;43.608;1.236;2024-03-07T05:36:34;4.47;;;1.10;;
34767;SDS011;21755;43.608;1.236;2024-03-07T05:39:00;5.30;;;1.40;;
34767;SDS011;21755;43.608;1.236;2024-03-07T05:41:34;7.10;;;1.88;;
34767;SDS011;21755;43.608;1.236;2024-03-07T05:44:00;3.10;;;1.17;;
34767;SDS011;21755;43.608;1.236;2024-03-07T05:46:26;4.50;;;1.60;;
34767;SDS011;21755;43.608;1.236;2024-03-07T05:48:53;4.03;;;1.42;;
34767;SDS011;21755;43.608;1.236;2024-03-07T05:51:22;3.00;;;1.10;;
34767;SDS011;21755;43.608;1.236;2024-03-07T05:53:48;4.70;;;1.25;;
34767;SDS011;21755;43.608;1.236;2024-03-07T05:56:15;4.53;;;1.13;;
34767;SDS011;21755;43.608;1.236;2024-03-07T05:58:41;4.28;;;1.17;;
34767;SDS011;21755;43.608;1.236;2024-03-07T06:01:07;3.38;;;0.93;;
34767;SDS011;21755;43.608;1.236;2024-03-07T06:03:33;1.95;;;1.15;;
34767;SDS011;21755;43.608;1.236;2024-03-07T06:06:00;3.08;;;1.10;;
34767;SDS011;21755;43.608;1.236;2024-03-07T06:08:26;4.13;;;1.50;;
34767;SDS011;21755;43.608;1.236;2024-03-07T06:10:52;1.90;;;1.00;;
34767;SDS011;21755;43.608;1.236;2024-03-07T06:13:18;3.17;;;1.30;;
34767;SDS011;21755;43.608;1.236;2024-03-07T06:15:44;5.95;;;1.40;;
34767;SDS011;21755;43.608;1.236;2024-03-07T06:18:13;2.80;;;1.00;;
34767;SDS011;21755;43.608;1.236;2024-03-07T06:20:40;7.28;;;1.63;;
34767;SDS011;21755;43.608;1.236;2024-03-07T06:23:06;4.60;;;1.00;;
34767;SDS011;21755;43.608;1.236;2024-03-07T06:25:32;2.35;;;1.10;;
34767;SDS011;21755;43.608;1.236;2024-03-07T06:28:02;2.28;;;1.00;;
34767;SDS011;21755;43.608;1.236;2024-03-07T06:30:37;7.30;;;1.30;;
34767;SDS011;21755;43.608;1.236;2024-03-07T06:33:08;3.45;;;1.02;;
34767;SDS011;21755;43.608;1.236;2024-03-07T06:35:37;6.43;;;1.20;;
34767;SDS011;21755;43.608;1.236;2024-03-07T06:38:08;4.07;;;1.77;;
34767;SDS011;21755;43.608;1.236;2024-03-07T06:40:35;2.35;;;1.13;;
34767;SDS011;21755;43.608;1.236;2024-03-07T06:43:14;3.42;;;0.98;;
34767;SDS011;21755;43.608;1.236;2024-03-07T06:45:40;3.38;;;1.23;;
34767;SDS011;21755;43.608;1.236;2024-03-07T06:48:07;2.00;;;0.82;;
34767;SDS011;21755;43.608;1.236;2024-03-07T06:50:33;3.65;;;0.93;;
34767;SDS011;21755;43.608;1.236;2024-03-07T06:53:00;2.53;;;0.80;;
34767;SDS011;21755;43.608;1.236;2024-03-07T06:55:27;2.05;;;1.00;;
34767;SDS011;21755;43.608;1.236;2024-03-07T06:57:53;3.72;;;1.25;;
34767;SDS011;21755;43.608;1.236;2024-03-07T07:00:19;5.57;;;0.77;;
34767;SDS011;21755;43.608;1.236;2024-03-07T07:02:46;4.70;;;1.17;;
34767;SDS011;21755;43.608;1.236;2024-03-07T07:05:13;4.88;;;1.27;;
34767;SDS011;21755;43.608;1.236;2024-03-07T07:07:49;2.78;;;0.80;;
34767;SDS011;21755;43.608;1.236;2024-03-07T07:10:18;7.05;;;1.00;;
34767;SDS011;21755;43.608;1.236;2024-03-07T07:15:11;3.10;;;0.95;;
34767;SDS011;21755;43.608;1.236;2024-03-07T07:17:38;5.03;;;1.30;;
34767;SDS011;21755;43.608;1.236;2024-03-07T07:20:04;2.90;;;1.13;;
34767;SDS011;21755;43.608;1.236;2024-03-07T07:22:37;4.47;;;1.02;;
34767;SDS011;21755;43.608;1.236;2024-03-07T07:25:04;3.33;;;1.00;;
34767;SDS011;21755;43.608;1.236;2024-03-07T07:27:32;2.17;;;0.85;;
34767;SDS011;21755;43.608;1.236;2024-03-07T07:29:58;7.75;;;0.93;;
34767;SDS011;21755;43.608;1.236;2024-03-07T07:32:24;2.55;;;1.10;;
34767;SDS011;21755;43.608;1.236;2024-03-07T07:34:51;2.88;;;0.90;;
34767;SDS011;21755;43.608;1.236;2024-03-07T07:37:16;2.70;;;1.30;;
34767;SDS011;21755;43.608;1.236;2024-03-07T07:39:42;3.58;;;0.90;;
34767;SDS011;21755;43.608;1.236;2024-03-07T07:42:08;2.90;;;1.08;;
34767;SDS011;21755;43.608;1.236;2024-03-07T07:44:35;4.15;;;0.75;;
34767;SDS011;21755;43.608;1.236;2024-03-07T07:47:01;2.85;;;0.95;;
34767;SDS011;21755;43.608;1.236;2024-03-07T07:49:27;5.18;;;1.20;;
34767;SDS011;21755;43.608;1.236;2024-03-07T07:51:53;3.78;;;0.90;;
34767;SDS011;21755;43.608;1.236;2024-03-07T07:54:19;2.78;;;0.82;;
34767;SDS011;21755;43.608;1.236;2024-03-07T07:56:46;1.77;;;0.60;;
34767;SDS011;21755;43.608;1.236;2024-03-07T07:59:16;5.93;;;0.50;;
34767;SDS011;21755;43.608;1.236;2024-03-07T08:01:42;1.95;;;0.82;;
34767;SDS011;21755;43.608;1.236;2024-03-07T08:04:08;1.15;;;0.57;;
34767;SDS011;21755;43.608;1.236;2024-03-07T08:06:35;3.80;;;0.65;;
34767;SDS011;21755;43.608;1.236;2024-03-07T08:09:01;4.75;;;0.70;;
34767;SDS011;21755;43.608;1.236;2024-03-07T08:11:26;1.85;;;0.65;;
34767;SDS011;21755;43.608;1.236;2024-03-07T08:13:52;3.03;;;0.80;;
34767;SDS011;21755;43.608;1.236;2024-03-07T08:16:19;1.23;;;0.70;;
34767;SDS011;21755;43.608;1.236;2024-03-07T08:18:45;1.85;;;0.60;;
34767;SDS011;21755;43.608;1.236;2024-03-07T08:21:11;2.17;;;0.80;;
34767;SDS011;21755;43.608;1.236;2024-03-07T08:23:37;2.15;;;0.70;;
34767;SDS011;21755;43.608;1.236;2024-03-07T08:26:03;5.78;;;1.23;;
34767;SDS011;21755;43.608;1.236;2024-03-07T08:28:30;3.33;;;0.70;;
34767;SDS011;21755;43.608;1.236;2024-03-07T08:30:56;1.77;;;0.52;;
34767;SDS011;21755;43.608;1.236;2024-03-07T08:33:24;3.03;;;0.63;;
34767;SDS011;21755;43.608;1.236;2024-03-07T08:35:51;6.55;;;0.75;;
34767;SDS011;21755;43.608;1.236;2024-03-07T08:38:18;3.00;;;0.70;;
34767;SDS011;21755;43.608;1.236;2024-03-07T08:40:44;2.90;;;0.60;;
34767;SDS011;21755;43.608;1.236;2024-03-07T08:43:10;9.90;;;1.80;;
34767;SDS011;21755;43.608;1.236;2024-03-07T08:45:36;3.17;;;0.82;;
34767;SDS011;21755;43.608;1.236;2024-03-07T08:48:02;2.42;;;0.70;;
34767;SDS011;21755;43.608;1.236;2024-03-07T08:50:35;1.02;;;0.63;;
34767;SDS011;21755;43.608;1.236;2024-03-07T08:53:02;2.35;;;0.60;;
34767;SDS011;21755;43.608;1.236;2024-03-07T08:55:32;2.22;;;0.80;;
34767;SDS011;21755;43.608;1.236;2024-03-07T08:58:01;4.60;;;1.05;;
34767;SDS011;21755;43.608;1.236;2024-03-07T09:00:26;5.07;;;1.10;;
34767;SDS011;21755;43.608;1.236;2024-03-07T09:02:53;3.95;;;0.80;;
34767;SDS011;21755;43.608;1.236;2024-03-07T09:05:24;2.10;;;0.82;;
34767;SDS011;21755;43.608;1.236;2024-03-07T09:07:51;5.32;;;0.90;;
34767;SDS011;21755;43.608;1.236;2024-03-07T09:10:18;2.40;;;0.60;;
34767;SDS011;21755;43.608;1.236;2024-03-07T09:12:45;2.08;;;0.70;;
34767;SDS011;21755;43.608;1.236;2024-03-07T09:15:14;3.28;;;1.10;;
34767;SDS011;21755;43.608;1.236;2024-03-07T09:17:42;6.55;;;0.80;;
34767;SDS011;21755;43.608;1.236;2024-03-07T09:20:09;3.47;;;1.00;;
34767;SDS011;21755;43.608;1.236;2024-03-07T09:22:42;6.05;;;0.57;;
34767;SDS011;21755;43.608;1.236;2024-03-07T09:25:09;4.65;;;1.27;;
34767;SDS011;21755;43.608;1.236;2024-03-07T09:27:37;3.78;;;0.75;;
34767;SDS011;21755;43.608;1.236;2024-03-07T09:30:05;2.53;;;0.88;;
34767;SDS011;21755;43.608;1.236;2024-03-07T09:32:38;1.85;;;0.73;;
34767;SDS011;21755;43.608;1.236;2024-03-07T09:35:05;3.65;;;0.63;;
34767;SDS011;21755;43.608;1.236;2024-03-07T09:37:32;2.50;;;0.65;;
34767;SDS011;21755;43.608;1.236;2024-03-07T09:39:58;5.68;;;1.00;;
34767;SDS011;21755;43.608;1.236;2024-03-07T09:42:25;4.18;;;0.95;;
34767;SDS011;21755;43.608;1.236;2024-03-07T09:44:53;2.03;;;0.88;;
34767;SDS011;21755;43.608;1.236;2024-03-07T09:47:21;9.82;;;0.90;;
34767;SDS011;21755;43.608;1.236;2024-03-07T09:49:47;2.55;;;0.85;;
34767;SDS011;21755;43.608;1.236;2024-03-07T09:52:13;3.55;;;1.25;;
34767;SDS011;21755;43.608;1.236;2024-03-07T09:54:41;5.22;;;0.90;;
34767;SDS011;21755;43.608;1.236;2024-03-07T09:57:08;4.18;;;0.82;;
34767;SDS011;21755;43.608;1.236;2024-03-07T09:59:36;4.47;;;1.20;;
34767;SDS011;21755;43.608;1.236;2024-03-07T10:02:05;6.65;;;1.35;;
34767;SDS011;21755;43.608;1.236;2024-03-07T10:04:41;2.95;;;0.80;;
34767;SDS011;21755;43.608;1.236;2024-03-07T10:07:16;2.95;;;0.75;;
34767;SDS011;21755;43.608;1.236;2024-03-07T10:09:43;2.78;;;1.20;;
34767;SDS011;21755;43.608;1.236;2024-03-07T10:12:10;5.78;;;0.93;;
34767;SDS011;21755;43.608;1.236;2024-03-07T10:14:49;4.80;;;1.00;;
34767;SDS011;21755;43.608;1.236;2024-03-07T10:17:19;3.72;;;1.13;;
34767;SDS011;21755;43.608;1.236;2024-03-07T10:19:46;5.00;;;0.88;;
34767;SDS011;21755;43.608;1.236;2024-03-07T10:22:14;8.35;;;1.55;;
34767;SDS011;21755;43.608;1.236;2024-03-07T10:24:48;3.15;;;0.95;;
34767;SDS011;21755;43.608;1.236;2024-03-07T10:27:23;3.08;;;1.13;;
34767;SDS011;21755;43.608;1.236;2024-03-07T10:29:54;4.05;;;1.13;;
34767;SDS011;21755;43.608;1.236;2024-03-07T10:32:21;3.22;;;1.20;;
34767;SDS011;21755;43.608;1.236;2024-03-07T10:34:50;4.47;;;1.25;;
34767;SDS011;21755;43.608;1.236;2024-03-07T10:37:16;4.45;;;1.40;;
34767;SDS011;21755;43.608;1.236;2024-03-07T10:39:44;7.03;;;1.33;;
34767;SDS011;21755;43.608;1.236;2024-03-07T10:42:14;10.35;;;1.13;;
34767;SDS011;21755;43.608;1.236;2024-03-07T10:44:47;6.50;;;1.52;;
34767;SDS011;21755;43.608;1.236;2024-03-07T10:47:17;1.88;;;0.73;;
34767;SDS011;21755;43.608;1.236;2024-03-07T10:50:04;1.52;;;0.80;;
34767;SDS011;21755;43.608;1.236;2024-03-07T10:52:54;3.42;;;1.08;;
34767;SDS011;21755;43.608;1.236;2024-03-07T10:58:02;3.53;;;1.25;;
34767;SDS011;21755;43.608;1.236;2024-03-07T11:00:37;8.55;;;1.75;;
34767;SDS011;21755;43.608;1.236;2024-03-07T11:03:10;2.72;;;1.27;;
34767;SDS011;21755;43.608;1.236;2024-03-07T11:05:37;3.28;;;0.90;;
34767;SDS011;21755;43.608;1.236;2024-03-07T11:08:04;9.50;;;1.38;;
34767;SDS011;21755;43.608;1.236;2024-03-07T11:10:37;6.70;;;1.20;;
34767;SDS011;21755;43.608;1.236;2024-03-07T11:13:04;3.15;;;1.23;;
34767;SDS011;21755;43.608;1.236;2024-03-07T11:15:32;11.93;;;1.30;;
34767;SDS011;21755;43.608;1.236;2024-03-07T11:17:59;3.13;;;1.15;;
34767;SDS011;21755;43.608;1.236;2024-03-07T11:20:26;1.67;;;0.70;;
34767;SDS011;21755;43.608;1.236;2024-03-07T11:22:58;2.17;;;1.10;;
34767;SDS011;21755;43.608;1.236;2024-03-07T11:25:26;6.90;;;1.15;;
34767;SDS011;21755;43.608;1.236;2024-03-07T11:27:54;8.20;;;1.73;;
34767;SDS011;21755;43.608;1.236;2024-03-07T11:30:24;3.90;;;1.38;;
34767;SDS011;21755;43.608;1.236;2024-03-07T11:32:54;4.28;;;1.42;;
34767;SDS011;21755;43.608;1.236;2024-03-07T11:35:20;11.90;;;1.13;;
34767;SDS011;21755;43.608;1.236;2024-03-07T11:37:57;8.98;;;1.58;;
34767;SDS011;21755;43.608;1.236;2024-03-07T11:42:50;3.53;;;1.20;;
34767;SDS011;21755;43.608;1.236;2024-03-07T11:45:20;3.28;;;1.45;;
34767;SDS011;21755;43.608;1.236;2024-03-07T11:47:53;4.82;;;1.27;;
34767;SDS011;21755;43.608;1.236;2024-03-07T11:50:26;5.25;;;1.33;;
34767;SDS011;21755;43.608;1.236;2024-03-07T11:52:55;4.72;;;1.10;;
34767;SDS011;21755;43.608;1.236;2024-03-07T11:55:22;4.35;;;1.20;;
34767;SDS011;21755;43.608;1.236;2024-03-07T11:57:48;4.93;;;1.30;;
34767;SDS011;21755;43.608;1.236;2024-03-07T12:00:18;6.10;;;1.48;;
34767;SDS011;21755;43.608;1.236;2024-03-07T12:02:45;4.60;;;1.13;;
34767;SDS011;21755;43.608;1.236;2024-03-07T12:05:13;6.10;;;1.48;;
34767;SDS011;21755;43.608;1.236;2024-03-07T12:07:41;3.47;;;1.25;;
34767;SDS011;21755;43.608;1.236;2024-03-07T12:10:08;6.57;;;1.50;;
34767;SDS011;21755;43.608;1.236;2024-03-07T12:12:35;7.22;;;1.80;;
34767;SDS011;21755;43.608;1.236;2024-03-07T12:15:07;7.72;;;1.77;;
34767;SDS011;21755;43.608;1.236;2024-03-07T12:17:46;7.03;;;1.20;;
34767;SDS011;21755;43.608;1.236;2024-03-07T12:20:16;4.43;;;1.20;;
34767;SDS011;21755;43.608;1.236;2024-03-07T12:22:59;4.30;;;1.65;;
34767;SDS011;21755;43.608;1.236;2024-03-07T12:25:30;3.37;;;1.50;;
34767;SDS011;21755;43.608;1.236;2024-03-07T12:28:00;3.50;;;0.93;;
34767;SDS011;21755;43.608;1.236;2024-03-07T12:30:51;2.88;;;1.35;;
34767;SDS011;21755;43.608;1.236;2024-03-07T12:33:19;5.78;;;1.30;;
34767;SDS011;21755;43.608;1.236;2024-03-07T12:35:49;6.63;;;1.30;;
34767;SDS011;21755;43.608;1.236;2024-03-07T12:38:17;6.05;;;1.20;;
34767;SDS011;21755;43.608;1.236;2024-03-07T12:40:44;5.57;;;1.50;;
34767;SDS011;21755;43.608;1.236;2024-03-07T12:43:19;6.88;;;1.55;;
34767;SDS011;21755;43.608;1.236;2024-03-07T12:45:52;5.15;;;1.40;;
34767;SDS011;21755;43.608;1.236;2024-03-07T12:48:23;6.13;;;1.25;;
34767;SDS011;21755;43.608;1.236;2024-03-07T12:50:49;2.13;;;1.15;;
34767;SDS011;21755;43.608;1.236;2024-03-07T12:53:22;12.57;;;1.85;;
34767;SDS011;21755;43.608;1.236;2024-03-07T12:55:50;6.60;;;1.23;;
34767;SDS011;21755;43.608;1.236;2024-03-07T12:58:17;3.22;;;1.45;;
34767;SDS011;21755;43.608;1.236;2024-03-07T13:00:45;4.80;;;1.45;;
34767;SDS011;21755;43.608;1.236;2024-03-07T13:03:11;7.43;;;2.42;;
34767;SDS011;21755;43.608;1.236;2024-03-07T13:05:40;5.35;;;1.80;;
34767;SDS011;21755;43.608;1.236;2024-03-07T13:08:08;7.55;;;1.50;;
34767;SDS011;21755;43.608;1.236;2024-03-07T13:10:43;12.15;;;1.75;;
34767;SDS011;21755;43.608;1.236;2024-03-07T13:13:10;4.20;;;1.67;;
34767;SDS011;21755;43.608;1.236;2024-03-07T13:15:39;7.03;;;2.00;;
34767;SDS011;21755;43.608;1.236;2024-03-07T13:18:07;4.20;;;1.65;;
34767;SDS011;21755;43.608;1.236;2024-03-07T13:20:37;7.35;;;2.25;;
34767;SDS011;21755;43.608;1.236;2024-03-07T13:23:03;6.18;;;1.70;;
34767;SDS011;21755;43.608;1.236;2024-03-07T13:25:30;3.10;;;1.60;;
34767;SDS011;21755;43.608;1.236;2024-03-07T13:28:01;8.93;;;2.03;;
34767;SDS011;21755;43.608;1.236;2024-03-07T13:30:38;4.28;;;1.42;;
34767;SDS011;21755;43.608;1.236;2024-03-07T13:33:14;7.00;;;1.50;;
34767;SDS011;21755;43.608;1.236;2024-03-07T13:35:40;7.75;;;1.63;;
34767;SDS011;21755;43.608;1.236;2024-03-07T13:38:06;3.88;;;1.40;;
34767;SDS011;21755;43.608;1.236;2024-03-07T13:40:33;9.25;;;1.75;;
34767;SDS011;21755;43.608;1.236;2024-03-07T13:43:07;6.40;;;1.60;;
34767;SDS011;21755;43.608;1.236;2024-03-07T13:45:34;6.25;;;1.67;;
34767;SDS011;21755;43.608;1.236;2024-03-07T13:48:05;5.13;;;1.42;;
34767;SDS011;21755;43.608;1.236;2024-03-07T13:50:32;4.88;;;1.70;;
34767;SDS011;21755;43.608;1.236;2024-03-07T13:52:59;5.55;;;1.40;;
34767;SDS011;21755;43.608;1.236;2024-03-07T14:07:21;5.20;;;1.40;;
34767;SDS011;21755;43.608;1.236;2024-03-07T14:19:43;4.50;;;1.60;;
34767;SDS011;21755;43.608;1.236;2024-03-07T14:31:29;4.78;;;1.73;;
34767;SDS011;21755;43.608;1.236;2024-03-07T14:36:38;4.65;;;1.83;;
34767;SDS011;21755;43.608;1.236;2024-03-07T14:39:11;4.20;;;1.50;;
34767;SDS011;21755;43.608;1.236;2024-03-07T14:44:13;3.70;;;1.30;;
34767;SDS011;21755;43.608;1.236;2024-03-07T14:46:41;3.83;;;1.80;;
34767;SDS011;21755;43.608;1.236;2024-03-07T14:49:08;11.50;;;1.60;;
34767;SDS011;21755;43.608;1.236;2024-03-07T14:51:39;5.00;;;1.50;;
34767;SDS011;21755;43.608;1.236;2024-03-07T14:54:05;7.60;;;1.52;;
34767;SDS011;21755;43.608;1.236;2024-03-07T14:56:33;5.68;;;1.48;;
34767;SDS011;21755;43.608;1.236;2024-03-07T14:58:59;3.30;;;1.20;;
34767;SDS011;21755;43.608;1.236;2024-03-07T15:01:31;6.60;;;1.77;;
34767;SDS011;21755;43.608;1.236;2024-03-07T15:03:59;4.03;;;1.50;;
34767;SDS011;21755;43.608;1.236;2024-03-07T15:09:00;3.75;;;1.38;;
34767;SDS011;21755;43.608;1.236;2024-03-07T15:13:57;3.22;;;1.52;;
34767;SDS011;21755;43.608;1.236;2024-03-07T15:16:25;7.68;;;2.17;;
34767;SDS011;21755;43.608;1.236;2024-03-07T15:18:53;6.22;;;2.10;;
34767;SDS011;21755;43.608;1.236;2024-03-07T15:21:21;5.57;;;1.77;;
34767;SDS011;21755;43.608;1.236;2024-03-07T15:23:47;5.90;;;2.03;;
34767;SDS011;21755;43.608;1.236;2024-03-07T15:26:13;7.75;;;1.80;;
34767;SDS011;21755;43.608;1.236;2024-03-07T15:28:43;3.88;;;1.73;;
34767;SDS011;21755;43.608;1.236;2024-03-07T15:31:08;9.48;;;1.95;;
34767;SDS011;21755;43.608;1.236;2024-03-07T15:33:39;3.22;;;1.42;;
34767;SDS011;21755;43.608;1.236;2024-03-07T15:36:08;6.88;;;2.13;;
34767;SDS011;21755;43.608;1.236;2024-03-07T15:38:34;6.25;;;1.73;;
34767;SDS011;21755;43.608;1.236;2024-03-07T15:41:03;11.00;;;2.00;;
34767;SDS011;21755;43.608;1.236;2024-03-07T15:43:30;9.88;;;1.70;;
34767;SDS011;21755;43.608;1.236;2024-03-07T15:45:56;6.85;;;1.80;;